This is the latest recevied weather packets stored in our database for station/object DL9SEC-13. If no packets are shown the sender has not sent any weather packets the latest 10 day(s).
| Time | Temp. | Humidity | Pressure | Rain* | Wind** | Luminosity | Snow |
|---|---|---|---|---|---|---|---|
| 1777814703 | 24.44° C | 32% | 1016.6 hPa | 0 mm | - | - | - |
| 1777813803 | 25° C | 31% | 1016.7 hPa | 0 mm | - | - | - |
| 1777812903 | 25.56° C | 32% | 1016.8 hPa | 0 mm | - | - | - |
| 1777812004 | 25.56° C | 31% | 1016.9 hPa | 0 mm | - | - | - |
| 1777811105 | 25.56° C | 33% | 1017.1 hPa | 0 mm | - | - | - |
| 1777810203 | 25° C | 32% | 1017.2 hPa | 0 mm | - | - | - |
| 1777809303 | 25.56° C | 31% | 1017.3 hPa | 0 mm | - | - | - |
| 1777808403 | 26.11° C | 30% | 1017.3 hPa | 0 mm | - | - | - |
| 1777807502 | 25° C | 31% | 1017.5 hPa | 0 mm | - | - | - |
| 1777806603 | 24.44° C | 32% | 1017.6 hPa | 0 mm | - | - | - |
| 1777805703 | 25.56° C | 30% | 1017.8 hPa | 0 mm | - | - | - |
| 1777803903 | 22.78° C | 34% | 1018.1 hPa | 0 mm | - | - | - |
| 1777803003 | 22.22° C | 37% | 1018.3 hPa | 0 mm | - | - | - |
| 1777802104 | 21.67° C | 39% | 1018.5 hPa | 0 mm | - | - | - |
| 1777801203 | 21.67° C | 41% | 1018.6 hPa | 0 mm | - | - | - |
| 1777800305 | 21.11° C | 41% | 1018.8 hPa | 0 mm | - | - | - |
| 1777799402 | 21.11° C | 42% | 1018.7 hPa | 0 mm | - | - | - |
| 1777798503 | 20.56° C | 43% | 1018.7 hPa | 0 mm | - | - | - |
| 1777797603 | 20° C | 42% | 1018.8 hPa | 0 mm | - | - | - |
| 1777796703 | 20° C | 41% | 1018.9 hPa | 0 mm | - | - | - |
| 1777795802 | 20° C | 42% | 1018.9 hPa | 0 mm | - | - | - |
| 1777794903 | 18.89° C | 51% | 1018.9 hPa | 0 mm | - | - | - |
| 1777794002 | 19.44° C | 46% | 1018.9 hPa | 0 mm | - | - | - |
| 1777793103 | 20° C | 44% | 1018.9 hPa | 0 mm | - | - | - |
| 1777792202 | 16.67° C | 51% | 1018.9 hPa | 0 mm | - | - | - |
* Rain latest hour (hover to see other rain measurements)
** Current wind speed in m/s (hover to see current wind gust speed)